sensor_id;sensor_type;location;lat;lon;timestamp;pressure;altitude;pressure_sealevel;temperature;humidity
19736;BME280;32064;49.310;8.646;2023-12-07T00:02:05;100930.09;;;9.09;67.93
19736;BME280;32064;49.310;8.646;2023-12-07T00:04:31;100937.22;;;9.07;68.37
19736;BME280;32064;49.310;8.646;2023-12-07T00:06:56;100939.22;;;9.02;68.67
19736;BME280;32064;49.310;8.646;2023-12-07T00:09:22;100931.69;;;8.96;68.46
19736;BME280;32064;49.310;8.646;2023-12-07T00:11:47;100931.09;;;8.91;68.21
19736;BME280;32064;49.310;8.646;2023-12-07T00:14:12;100930.94;;;8.94;68.23
19736;BME280;32064;49.310;8.646;2023-12-07T00:16:38;100926.97;;;8.87;67.99
19736;BME280;32064;49.310;8.646;2023-12-07T00:19:03;100933.81;;;8.89;67.06
19736;BME280;32064;49.310;8.646;2023-12-07T00:21:28;100935.84;;;8.84;67.77
19736;BME280;32064;49.310;8.646;2023-12-07T00:23:54;100942.72;;;8.87;67.26
19736;BME280;32064;49.310;8.646;2023-12-07T00:26:19;100951.59;;;8.84;67.52
19736;BME280;32064;49.310;8.646;2023-12-07T00:28:45;100953.44;;;8.82;67.08
19736;BME280;32064;49.310;8.646;2023-12-07T00:31:10;100941.75;;;8.72;67.08
19736;BME280;32064;49.310;8.646;2023-12-07T00:33:36;100942.00;;;8.67;66.93
19736;BME280;32064;49.310;8.646;2023-12-07T00:36:01;100947.41;;;8.64;66.78
19736;BME280;32064;49.310;8.646;2023-12-07T00:38:26;100944.34;;;8.56;67.18
19736;BME280;32064;49.310;8.646;2023-12-07T00:40:52;100941.88;;;8.53;66.69
19736;BME280;32064;49.310;8.646;2023-12-07T00:43:17;100942.97;;;8.49;66.72
19736;BME280;32064;49.310;8.646;2023-12-07T00:45:42;100947.19;;;8.51;66.59
19736;BME280;32064;49.310;8.646;2023-12-07T00:48:08;100945.00;;;8.44;66.67
19736;BME280;32064;49.310;8.646;2023-12-07T00:50:33;100950.31;;;8.42;66.62
19736;BME280;32064;49.310;8.646;2023-12-07T00:52:58;100948.81;;;8.37;66.61
19736;BME280;32064;49.310;8.646;2023-12-07T00:55:24;100949.91;;;8.32;66.76
19736;BME280;32064;49.310;8.646;2023-12-07T00:57:49;100954.16;;;8.35;66.47
19736;BME280;32064;49.310;8.646;2023-12-07T01:00:15;100966.31;;;8.36;66.61
19736;BME280;32064;49.310;8.646;2023-12-07T01:02:40;100961.00;;;8.38;66.58
19736;BME280;32064;49.310;8.646;2023-12-07T01:05:06;100959.31;;;8.37;66.14
19736;BME280;32064;49.310;8.646;2023-12-07T01:07:31;100964.66;;;8.35;66.37
19736;BME280;32064;49.310;8.646;2023-12-07T01:09:57;100963.94;;;8.31;65.65
19736;BME280;32064;49.310;8.646;2023-12-07T01:12:22;100965.94;;;8.26;65.74
19736;BME280;32064;49.310;8.646;2023-12-07T01:14:47;100975.75;;;8.23;66.00
19736;BME280;32064;49.310;8.646;2023-12-07T01:17:13;100968.13;;;8.18;65.91
19736;BME280;32064;49.310;8.646;2023-12-07T01:19:38;100978.69;;;8.17;65.79
19736;BME280;32064;49.310;8.646;2023-12-07T01:22:04;100983.28;;;8.12;65.54
19736;BME280;32064;49.310;8.646;2023-12-07T01:24:29;100983.28;;;8.12;65.62
19736;BME280;32064;49.310;8.646;2023-12-07T01:26:55;100989.84;;;8.03;65.79
19736;BME280;32064;49.310;8.646;2023-12-07T01:29:20;100989.16;;;7.99;65.70
19736;BME280;32064;49.310;8.646;2023-12-07T01:31:45;100979.47;;;8.01;65.63
19736;BME280;32064;49.310;8.646;2023-12-07T01:34:11;100990.22;;;7.95;66.01
19736;BME280;32064;49.310;8.646;2023-12-07T01:36:36;100988.47;;;7.96;65.51
19736;BME280;32064;49.310;8.646;2023-12-07T01:39:02;100991.84;;;7.98;65.89
19736;BME280;32064;49.310;8.646;2023-12-07T01:41:27;100993.47;;;8.00;65.89
19736;BME280;32064;49.310;8.646;2023-12-07T01:43:53;100991.84;;;7.98;65.59
19736;BME280;32064;49.310;8.646;2023-12-07T01:46:18;100998.16;;;7.94;65.96
19736;BME280;32064;49.310;8.646;2023-12-07T01:48:44;101006.88;;;7.94;65.51
19736;BME280;32064;49.310;8.646;2023-12-07T01:51:13;100997.69;;;7.85;65.20
19736;BME280;32064;49.310;8.646;2023-12-07T01:53:39;100997.59;;;7.70;65.69
19736;BME280;32064;49.310;8.646;2023-12-07T01:56:05;100993.59;;;7.62;65.25
19736;BME280;32064;49.310;8.646;2023-12-07T01:58:32;100998.03;;;7.60;65.71
19736;BME280;32064;49.310;8.646;2023-12-07T02:00:58;100994.88;;;7.54;65.73
19736;BME280;32064;49.310;8.646;2023-12-07T02:03:24;101004.25;;;7.58;66.25
19736;BME280;32064;49.310;8.646;2023-12-07T02:05:51;101000.81;;;7.57;65.54
19736;BME280;32064;49.310;8.646;2023-12-07T02:08:16;101001.00;;;7.53;65.67
19736;BME280;32064;49.310;8.646;2023-12-07T02:10:42;100989.69;;;7.52;66.30
19736;BME280;32064;49.310;8.646;2023-12-07T02:13:07;100986.88;;;7.57;65.38
19736;BME280;32064;49.310;8.646;2023-12-07T02:15:34;100987.66;;;7.59;65.70
19736;BME280;32064;49.310;8.646;2023-12-07T02:18:09;100996.34;;;7.59;64.95
19736;BME280;32064;49.310;8.646;2023-12-07T02:20:51;101000.03;;;7.55;65.41
19736;BME280;32064;49.310;8.646;2023-12-07T02:23:18;100987.81;;;7.56;64.41
19736;BME280;32064;49.310;8.646;2023-12-07T02:25:51;100988.84;;;7.52;65.45
19736;BME280;32064;49.310;8.646;2023-12-07T02:28:17;100992.41;;;7.51;65.27
19736;BME280;32064;49.310;8.646;2023-12-07T02:30:43;100993.41;;;7.48;64.10
19736;BME280;32064;49.310;8.646;2023-12-07T02:33:08;100987.53;;;7.43;64.72
19736;BME280;32064;49.310;8.646;2023-12-07T02:35:36;100990.66;;;7.32;64.38
19736;BME280;32064;49.310;8.646;2023-12-07T02:38:02;100989.94;;;7.29;64.79
19736;BME280;32064;49.310;8.646;2023-12-07T02:40:28;100994.63;;;7.22;64.84
19736;BME280;32064;49.310;8.646;2023-12-07T02:42:54;100999.88;;;7.22;64.17
19736;BME280;32064;49.310;8.646;2023-12-07T02:45:20;100997.31;;;7.20;64.26
19736;BME280;32064;49.310;8.646;2023-12-07T02:47:46;100995.63;;;7.19;64.81
19736;BME280;32064;49.310;8.646;2023-12-07T02:50:12;100997.38;;;7.19;64.10
19736;BME280;32064;49.310;8.646;2023-12-07T02:52:38;100995.03;;;7.13;64.64
19736;BME280;32064;49.310;8.646;2023-12-07T02:55:03;100990.88;;;7.09;64.62
19736;BME280;32064;49.310;8.646;2023-12-07T02:57:29;100994.47;;;7.06;65.15
19736;BME280;32064;49.310;8.646;2023-12-07T02:59:55;100993.53;;;7.07;64.47
19736;BME280;32064;49.310;8.646;2023-12-07T03:02:21;100994.41;;;7.08;64.55
19736;BME280;32064;49.310;8.646;2023-12-07T03:04:46;100989.25;;;7.06;64.26
19736;BME280;32064;49.310;8.646;2023-12-07T03:07:12;100990.88;;;7.09;64.23
19736;BME280;32064;49.310;8.646;2023-12-07T03:09:37;100994.41;;;7.08;65.05
19736;BME280;32064;49.310;8.646;2023-12-07T03:12:03;100993.00;;;7.01;64.19
19736;BME280;32064;49.310;8.646;2023-12-07T03:14:28;101001.63;;;7.03;64.11
19736;BME280;32064;49.310;8.646;2023-12-07T03:16:54;100996.59;;;6.98;65.05
19736;BME280;32064;49.310;8.646;2023-12-07T03:19:19;100995.09;;;6.92;65.04
19736;BME280;32064;49.310;8.646;2023-12-07T03:21:45;101006.53;;;6.90;64.42
19736;BME280;32064;49.310;8.646;2023-12-07T03:24:10;101004.22;;;6.84;64.70
19736;BME280;32064;49.310;8.646;2023-12-07T03:26:36;101004.34;;;6.81;64.43
19736;BME280;32064;49.310;8.646;2023-12-07T03:29:02;100999.31;;;6.76;64.25
19736;BME280;32064;49.310;8.646;2023-12-07T03:31:28;101002.28;;;6.68;65.88
19736;BME280;32064;49.310;8.646;2023-12-07T03:33:54;101007.72;;;6.64;65.36
19736;BME280;32064;49.310;8.646;2023-12-07T03:36:19;101004.53;;;6.57;64.86
19736;BME280;32064;49.310;8.646;2023-12-07T03:38:45;101003.88;;;6.52;65.76
19736;BME280;32064;49.310;8.646;2023-12-07T03:41:10;101013.22;;;6.58;65.53
19736;BME280;32064;49.310;8.646;2023-12-07T03:43:35;101018.34;;;6.59;65.50
19736;BME280;32064;49.310;8.646;2023-12-07T03:46:04;101016.72;;;6.57;65.83
19736;BME280;32064;49.310;8.646;2023-12-07T03:48:30;101007.31;;;6.52;64.97
19736;BME280;32064;49.310;8.646;2023-12-07T03:50:55;101015.16;;;6.52;64.34
19736;BME280;32064;49.310;8.646;2023-12-07T03:53:21;101013.25;;;6.56;64.75
19736;BME280;32064;49.310;8.646;2023-12-07T03:55:46;101013.41;;;6.53;65.39
19736;BME280;32064;49.310;8.646;2023-12-07T03:58:11;101014.06;;;6.58;65.44
19736;BME280;32064;49.310;8.646;2023-12-07T04:00:38;101016.53;;;6.61;64.92
19736;BME280;32064;49.310;8.646;2023-12-07T04:03:04;101016.47;;;6.63;64.07
19736;BME280;32064;49.310;8.646;2023-12-07T04:05:29;101014.25;;;6.53;63.97
19736;BME280;32064;49.310;8.646;2023-12-07T04:07:54;101013.47;;;6.51;65.23
19736;BME280;32064;49.310;8.646;2023-12-07T04:10:20;101018.94;;;6.45;64.01
19736;BME280;32064;49.310;8.646;2023-12-07T04:12:45;101018.06;;;6.46;64.11
19736;BME280;32064;49.310;8.646;2023-12-07T04:15:10;101023.59;;;6.39;64.49
19736;BME280;32064;49.310;8.646;2023-12-07T04:17:36;101011.38;;;6.39;64.95
19736;BME280;32064;49.310;8.646;2023-12-07T04:20:01;101022.03;;;6.35;64.38
19736;BME280;32064;49.310;8.646;2023-12-07T04:22:27;101020.47;;;6.30;64.07
19736;BME280;32064;49.310;8.646;2023-12-07T04:24:54;101018.59;;;6.34;64.73
19736;BME280;32064;49.310;8.646;2023-12-07T04:27:19;101016.81;;;6.35;65.05
19736;BME280;32064;49.310;8.646;2023-12-07T04:29:44;101015.97;;;6.34;64.96
19736;BME280;32064;49.310;8.646;2023-12-07T04:32:10;101017.84;;;6.30;64.05
19736;BME280;32064;49.310;8.646;2023-12-07T04:34:36;101020.53;;;6.29;65.35
19736;BME280;32064;49.310;8.646;2023-12-07T04:37:01;101027.41;;;6.32;63.59
19736;BME280;32064;49.310;8.646;2023-12-07T04:39:27;101025.63;;;6.32;64.72
19736;BME280;32064;49.310;8.646;2023-12-07T04:41:52;101033.66;;;6.27;65.39
19736;BME280;32064;49.310;8.646;2023-12-07T04:44:18;101036.53;;;6.21;64.75
19736;BME280;32064;49.310;8.646;2023-12-07T04:46:44;101045.16;;;6.23;65.48
19736;BME280;32064;49.310;8.646;2023-12-07T04:49:10;101043.56;;;6.19;64.52
19736;BME280;32064;49.310;8.646;2023-12-07T04:51:35;101040.97;;;6.19;65.34
19736;BME280;32064;49.310;8.646;2023-12-07T04:54:00;101045.22;;;6.22;64.25
19736;BME280;32064;49.310;8.646;2023-12-07T04:56:26;101046.56;;;6.10;64.04
19736;BME280;32064;49.310;8.646;2023-12-07T04:58:51;101048.38;;;6.08;64.19
19736;BME280;32064;49.310;8.646;2023-12-07T05:01:16;101056.09;;;6.11;64.18
19736;BME280;32064;49.310;8.646;2023-12-07T05:03:44;101050.69;;;6.16;63.45
19736;BME280;32064;49.310;8.646;2023-12-07T05:06:10;101044.88;;;6.09;65.08
19736;BME280;32064;49.310;8.646;2023-12-07T05:08:35;101053.88;;;6.02;63.99
19736;BME280;32064;49.310;8.646;2023-12-07T05:11:01;101043.63;;;5.97;63.69
19736;BME280;32064;49.310;8.646;2023-12-07T05:13:26;101043.53;;;5.99;65.52
19736;BME280;32064;49.310;8.646;2023-12-07T05:15:51;101044.34;;;6.01;64.32
19736;BME280;32064;49.310;8.646;2023-12-07T05:18:17;101045.84;;;6.06;65.43
19736;BME280;32064;49.310;8.646;2023-12-07T05:20:42;101043.16;;;6.08;65.26
19736;BME280;32064;49.310;8.646;2023-12-07T05:23:08;101043.03;;;6.11;64.50
19736;BME280;32064;49.310;8.646;2023-12-07T05:25:34;101045.72;;;6.10;64.69
19736;BME280;32064;49.310;8.646;2023-12-07T05:27:59;101043.13;;;6.10;64.67
19736;BME280;32064;49.310;8.646;2023-12-07T05:30:24;101042.56;;;6.01;65.58
19736;BME280;32064;49.310;8.646;2023-12-07T05:32:50;101040.69;;;6.05;65.19
19736;BME280;32064;49.310;8.646;2023-12-07T05:35:16;101038.03;;;6.06;64.98
19736;BME280;32064;49.310;8.646;2023-12-07T05:37:41;101040.69;;;6.05;64.46
19736;BME280;32064;49.310;8.646;2023-12-07T05:40:07;101031.47;;;5.96;65.53
19736;BME280;32064;49.310;8.646;2023-12-07T05:42:33;101037.53;;;5.97;64.19
19736;BME280;32064;49.310;8.646;2023-12-07T05:44:58;101053.16;;;5.98;65.89
19736;BME280;32064;49.310;8.646;2023-12-07T05:47:25;101036.50;;;6.01;65.62
19736;BME280;32064;49.310;8.646;2023-12-07T05:49:51;101040.25;;;5.94;65.40
19736;BME280;32064;49.310;8.646;2023-12-07T05:52:16;101036.69;;;5.96;65.51
19736;BME280;32064;49.310;8.646;2023-12-07T05:54:41;101043.66;;;5.96;64.98
19736;BME280;32064;49.310;8.646;2023-12-07T05:57:12;101040.94;;;5.99;64.21
19736;BME280;32064;49.310;8.646;2023-12-07T05:59:38;101053.03;;;6.01;63.98
19736;BME280;32064;49.310;8.646;2023-12-07T06:02:04;101060.00;;;6.01;63.19
19736;BME280;32064;49.310;8.646;2023-12-07T06:04:30;101056.44;;;6.03;63.35
19736;BME280;32064;49.310;8.646;2023-12-07T06:06:56;101053.31;;;5.94;63.79
19736;BME280;32064;49.310;8.646;2023-12-07T06:09:21;101062.91;;;5.93;64.04
19736;BME280;32064;49.310;8.646;2023-12-07T06:11:46;101060.78;;;5.81;65.02
19736;BME280;32064;49.310;8.646;2023-12-07T06:14:12;101051.44;;;5.75;65.66
19736;BME280;32064;49.310;8.646;2023-12-07T06:16:37;101045.22;;;5.78;65.90
19736;BME280;32064;49.310;8.646;2023-12-07T06:19:02;101046.75;;;5.83;63.93
19736;BME280;32064;49.310;8.646;2023-12-07T06:21:29;101044.03;;;5.87;63.76
19736;BME280;32064;49.310;8.646;2023-12-07T06:23:55;101043.19;;;5.86;63.84
19736;BME280;32064;49.310;8.646;2023-12-07T06:26:21;101036.94;;;5.89;65.18
19736;BME280;32064;49.310;8.646;2023-12-07T06:28:47;101044.78;;;5.89;64.51
19736;BME280;32064;49.310;8.646;2023-12-07T06:31:12;101045.56;;;5.91;64.83
19736;BME280;32064;49.310;8.646;2023-12-07T06:33:40;101050.94;;;5.88;64.48
19736;BME280;32064;49.310;8.646;2023-12-07T06:36:05;101048.41;;;5.86;64.09
19736;BME280;32064;49.310;8.646;2023-12-07T06:38:31;101053.41;;;5.91;65.35
19736;BME280;32064;49.310;8.646;2023-12-07T06:40:56;101054.34;;;5.90;63.48
19736;BME280;32064;49.310;8.646;2023-12-07T06:43:22;101056.22;;;5.86;64.83
19736;BME280;32064;49.310;8.646;2023-12-07T06:45:48;101057.06;;;5.87;64.52
19736;BME280;32064;49.310;8.646;2023-12-07T06:48:13;101063.97;;;5.88;65.26
19736;BME280;32064;49.310;8.646;2023-12-07T06:50:39;101063.19;;;5.85;65.29
19736;BME280;32064;49.310;8.646;2023-12-07T06:53:04;101060.53;;;5.87;64.66
19736;BME280;32064;49.310;8.646;2023-12-07T06:55:30;101067.50;;;5.87;65.89
19736;BME280;32064;49.310;8.646;2023-12-07T06:57:55;101067.56;;;5.85;64.25
19736;BME280;32064;49.310;8.646;2023-12-07T07:00:21;101069.50;;;5.80;65.47
19736;BME280;32064;49.310;8.646;2023-12-07T07:02:46;101067.69;;;5.82;65.81
19736;BME280;32064;49.310;8.646;2023-12-07T07:05:12;101070.28;;;5.82;65.60
19736;BME280;32064;49.310;8.646;2023-12-07T07:07:38;101068.53;;;5.82;66.05
19736;BME280;32064;49.310;8.646;2023-12-07T07:10:04;101068.53;;;5.82;66.31
19736;BME280;32064;49.310;8.646;2023-12-07T07:12:29;101064.94;;;5.85;66.59
19736;BME280;32064;49.310;8.646;2023-12-07T07:14:55;101069.28;;;5.86;66.75
19736;BME280;32064;49.310;8.646;2023-12-07T07:17:21;101070.03;;;5.88;66.37
19736;BME280;32064;49.310;8.646;2023-12-07T07:19:46;101063.84;;;5.91;67.92
19736;BME280;32064;49.310;8.646;2023-12-07T07:22:11;101057.66;;;5.95;66.46
19736;BME280;32064;49.310;8.646;2023-12-07T07:24:37;101072.94;;;6.04;66.63
19736;BME280;32064;49.310;8.646;2023-12-07T07:27:03;101082.34;;;6.08;67.65
19736;BME280;32064;49.310;8.646;2023-12-07T07:29:28;101083.19;;;6.08;67.28
19736;BME280;32064;49.310;8.646;2023-12-07T07:31:54;101083.13;;;6.10;68.47
19736;BME280;32064;49.310;8.646;2023-12-07T07:34:20;101082.22;;;6.11;67.09
19736;BME280;32064;49.310;8.646;2023-12-07T07:36:46;101083.09;;;6.12;68.56
19736;BME280;32064;49.310;8.646;2023-12-07T07:39:11;101090.66;;;6.18;68.01
19736;BME280;32064;49.310;8.646;2023-12-07T07:41:39;101089.63;;;6.22;69.17
19736;BME280;32064;49.310;8.646;2023-12-07T07:44:04;101100.69;;;6.28;67.92
19736;BME280;32064;49.310;8.646;2023-12-07T07:46:30;101100.91;;;6.22;67.76
19736;BME280;32064;49.310;8.646;2023-12-07T07:48:55;101101.72;;;6.24;68.91
19736;BME280;32064;49.310;8.646;2023-12-07T07:51:21;101101.78;;;6.23;69.49
19736;BME280;32064;49.310;8.646;2023-12-07T07:53:46;101109.84;;;6.17;68.44
19736;BME280;32064;49.310;8.646;2023-12-07T07:56:12;101106.13;;;6.22;68.71
19736;BME280;32064;49.310;8.646;2023-12-07T07:58:37;101112.81;;;6.29;69.88
19736;BME280;32064;49.310;8.646;2023-12-07T08:01:03;101104.59;;;6.39;69.95
19736;BME280;32064;49.310;8.646;2023-12-07T08:03:28;101103.81;;;6.37;69.99
19736;BME280;32064;49.310;8.646;2023-12-07T08:05:54;101097.06;;;6.31;68.96
19736;BME280;32064;49.310;8.646;2023-12-07T08:08:19;101094.41;;;6.33;70.52
19736;BME280;32064;49.310;8.646;2023-12-07T08:10:44;101094.59;;;6.28;70.47
19736;BME280;32064;49.310;8.646;2023-12-07T08:13:10;101094.47;;;6.31;70.82
19736;BME280;32064;49.310;8.646;2023-12-07T08:15:35;101090.03;;;6.33;69.43
19736;BME280;32064;49.310;8.646;2023-12-07T08:18:01;101087.22;;;6.38;69.49
19736;BME280;32064;49.310;8.646;2023-12-07T08:20:27;101088.63;;;6.46;69.31
19736;BME280;32064;49.310;8.646;2023-12-07T08:22:52;101083.13;;;6.52;70.41
19736;BME280;32064;49.310;8.646;2023-12-07T08:25:18;101090.31;;;6.47;69.25
19736;BME280;32064;49.310;8.646;2023-12-07T08:27:43;101087.16;;;6.39;71.14
19736;BME280;32064;49.310;8.646;2023-12-07T08:30:12;101076.34;;;6.48;70.93
19736;BME280;32064;49.310;8.646;2023-12-07T08:32:38;101065.81;;;6.50;70.13
19736;BME280;32064;49.310;8.646;2023-12-07T08:35:04;101062.34;;;6.49;69.82
19736;BME280;32064;49.310;8.646;2023-12-07T08:37:31;101056.47;;;6.44;70.96
19736;BME280;32064;49.310;8.646;2023-12-07T08:39:57;101053.19;;;6.39;70.27
19736;BME280;32064;49.310;8.646;2023-12-07T08:42:23;101047.38;;;6.33;70.69
19736;BME280;32064;49.310;8.646;2023-12-07T08:44:48;101052.59;;;6.33;72.27
19736;BME280;32064;49.310;8.646;2023-12-07T08:47:14;101061.72;;;6.22;73.05
19736;BME280;32064;49.310;8.646;2023-12-07T08:49:39;101057.66;;;6.37;71.09
19736;BME280;32064;49.310;8.646;2023-12-07T08:52:04;101053.94;;;6.43;72.52
19736;BME280;32064;49.310;8.646;2023-12-07T08:54:30;101055.63;;;6.44;71.31
19736;BME280;32064;49.310;8.646;2023-12-07T08:56:55;101054.50;;;6.49;72.31
19736;BME280;32064;49.310;8.646;2023-12-07T08:59:21;101062.47;;;6.46;73.04
19736;BME280;32064;49.310;8.646;2023-12-07T09:01:46;101069.25;;;6.50;71.28
19736;BME280;32064;49.310;8.646;2023-12-07T09:04:11;101059.16;;;6.43;72.70
19736;BME280;32064;49.310;8.646;2023-12-07T09:06:37;101061.38;;;6.52;72.76
19736;BME280;32064;49.310;8.646;2023-12-07T09:09:03;101065.50;;;6.58;72.59
19736;BME280;32064;49.310;8.646;2023-12-07T09:11:32;101065.16;;;6.65;72.20
19736;BME280;32064;49.310;8.646;2023-12-07T09:13:58;101050.66;;;6.58;72.89
19736;BME280;32064;49.310;8.646;2023-12-07T09:16:23;101054.72;;;6.65;73.85
19736;BME280;32064;49.310;8.646;2023-12-07T09:18:49;101048.28;;;6.72;72.60
19736;BME280;32064;49.310;8.646;2023-12-07T09:21:15;101053.97;;;6.82;73.44
19736;BME280;32064;49.310;8.646;2023-12-07T09:23:41;101054.97;;;6.80;74.30
19736;BME280;32064;49.310;8.646;2023-12-07T09:26:06;101060.63;;;6.89;73.44
19736;BME280;32064;49.310;8.646;2023-12-07T09:28:33;101059.78;;;6.89;73.08
19736;BME280;32064;49.310;8.646;2023-12-07T09:30:58;101041.38;;;6.90;73.88
19736;BME280;32064;49.310;8.646;2023-12-07T09:33:24;101047.13;;;6.98;72.90
19736;BME280;32064;49.310;8.646;2023-12-07T09:35:49;101046.28;;;6.98;74.03
19736;BME280;32064;49.310;8.646;2023-12-07T09:38:15;101046.75;;;7.08;73.70
19736;BME280;32064;49.310;8.646;2023-12-07T09:40:40;101046.31;;;7.17;73.67
19736;BME280;32064;49.310;8.646;2023-12-07T09:43:06;101041.78;;;7.20;73.62
19736;BME280;32064;49.310;8.646;2023-12-07T09:45:31;101051.25;;;7.23;73.91
19736;BME280;32064;49.310;8.646;2023-12-07T09:47:57;101044.75;;;7.32;73.24
19736;BME280;32064;49.310;8.646;2023-12-07T09:50:26;101045.75;;;7.29;73.05
19736;BME280;32064;49.310;8.646;2023-12-07T09:52:54;101036.91;;;7.32;73.39
19736;BME280;32064;49.310;8.646;2023-12-07T09:55:22;101033.16;;;7.37;74.00
19736;BME280;32064;49.310;8.646;2023-12-07T09:57:49;101035.72;;;7.39;74.06
19736;BME280;32064;49.310;8.646;2023-12-07T10:00:15;101034.84;;;7.57;73.34
19736;BME280;32064;49.310;8.646;2023-12-07T10:02:42;101027.53;;;7.64;73.21
19736;BME280;32064;49.310;8.646;2023-12-07T10:05:14;101020.47;;;7.66;73.41
19736;BME280;32064;49.310;8.646;2023-12-07T10:07:43;101030.06;;;7.84;72.60
19736;BME280;32064;49.310;8.646;2023-12-07T10:10:09;101016.34;;;7.79;73.26
19736;BME280;32064;49.310;8.646;2023-12-07T10:12:55;101011.41;;;7.91;72.31
19736;BME280;32064;49.310;8.646;2023-12-07T10:15:22;101006.81;;;7.96;71.96
19736;BME280;32064;49.310;8.646;2023-12-07T10:20:15;101004.03;;;8.16;72.43
19736;BME280;32064;49.310;8.646;2023-12-07T10:22:41;100999.41;;;8.21;72.78
19736;BME280;32064;49.310;8.646;2023-12-07T10:25:07;100984.22;;;8.10;72.42
19736;BME280;32064;49.310;8.646;2023-12-07T10:27:34;100993.72;;;8.13;73.18
19736;BME280;32064;49.310;8.646;2023-12-07T10:30:01;100995.38;;;8.31;72.28
19736;BME280;32064;49.310;8.646;2023-12-07T10:32:26;100994.63;;;8.29;72.86
19736;BME280;32064;49.310;8.646;2023-12-07T10:34:53;100996.09;;;8.35;72.00
19736;BME280;32064;49.310;8.646;2023-12-07T10:37:18;100993.47;;;8.35;71.37
19736;BME280;32064;49.310;8.646;2023-12-07T10:39:44;100996.09;;;8.35;71.19
19736;BME280;32064;49.310;8.646;2023-12-07T10:42:10;100990.75;;;8.37;71.73
19736;BME280;32064;49.310;8.646;2023-12-07T10:44:41;100987.69;;;8.28;71.35
19736;BME280;32064;49.310;8.646;2023-12-07T10:47:08;100976.41;;;8.26;71.40
19736;BME280;32064;49.310;8.646;2023-12-07T10:49:37;100966.41;;;8.17;71.47
19736;BME280;32064;49.310;8.646;2023-12-07T10:52:07;100959.97;;;8.07;71.13
19736;BME280;32064;49.310;8.646;2023-12-07T10:57:15;100944.31;;;7.88;72.13
19736;BME280;32064;49.310;8.646;2023-12-07T10:59:42;100943.31;;;7.91;71.99
19736;BME280;32064;49.310;8.646;2023-12-07T11:02:10;100930.13;;;7.92;71.80
19736;BME280;32064;49.310;8.646;2023-12-07T11:04:39;100929.28;;;7.92;71.93
19736;BME280;32064;49.310;8.646;2023-12-07T11:07:10;100919.97;;;7.86;72.11
19736;BME280;32064;49.310;8.646;2023-12-07T11:09:39;100917.88;;;8.10;71.87
19736;BME280;32064;49.310;8.646;2023-12-07T11:12:15;100915.09;;;8.13;71.83
19736;BME280;32064;49.310;8.646;2023-12-07T11:14:42;100913.97;;;8.01;72.02
19736;BME280;32064;49.310;8.646;2023-12-07T11:17:08;100912.47;;;8.13;71.51
19736;BME280;32064;49.310;8.646;2023-12-07T11:22:03;100912.28;;;8.33;70.82
19736;BME280;32064;49.310;8.646;2023-12-07T11:24:29;100906.69;;;8.24;71.49
19736;BME280;32064;49.310;8.646;2023-12-07T11:26:57;100901.97;;;8.30;71.34
19736;BME280;32064;49.310;8.646;2023-12-07T11:29:28;100889.94;;;8.26;72.04
19736;BME280;32064;49.310;8.646;2023-12-07T11:32:01;100888.63;;;8.35;71.21
19736;BME280;32064;49.310;8.646;2023-12-07T11:34:41;100888.25;;;8.25;71.37
19736;BME280;32064;49.310;8.646;2023-12-07T11:37:08;100883.84;;;8.26;71.73
19736;BME280;32064;49.310;8.646;2023-12-07T11:39:39;100872.34;;;8.28;71.05
19736;BME280;32064;49.310;8.646;2023-12-07T11:42:25;100871.44;;;8.29;71.33
19736;BME280;32064;49.310;8.646;2023-12-07T11:44:51;100871.19;;;8.34;71.62
19736;BME280;32064;49.310;8.646;2023-12-07T11:47:18;100872.78;;;8.37;71.81
19736;BME280;32064;49.310;8.646;2023-12-07T11:49:44;100868.63;;;8.50;71.46
19736;BME280;32064;49.310;8.646;2023-12-07T11:52:17;100858.31;;;8.47;70.95
19736;BME280;32064;49.310;8.646;2023-12-07T11:54:46;100850.50;;;8.45;70.57
19736;BME280;32064;49.310;8.646;2023-12-07T11:57:16;100842.34;;;8.34;71.76
19736;BME280;32064;49.310;8.646;2023-12-07T11:59:43;100833.81;;;8.30;72.01
19736;BME280;32064;49.310;8.646;2023-12-07T12:02:13;100830.84;;;8.37;71.12
19736;BME280;32064;49.310;8.646;2023-12-07T12:04:40;100830.81;;;8.54;71.68
19736;BME280;32064;49.310;8.646;2023-12-07T12:07:05;100833.19;;;8.59;71.76
19736;BME280;32064;49.310;8.646;2023-12-07T12:09:31;100823.22;;;8.49;71.44
19736;BME280;32064;49.310;8.646;2023-12-07T12:11:56;100822.56;;;8.28;71.49
19736;BME280;32064;49.310;8.646;2023-12-07T12:14:25;100812.81;;;8.48;70.95
19736;BME280;32064;49.310;8.646;2023-12-07T12:16:51;100818.88;;;8.48;71.48
19736;BME280;32064;49.310;8.646;2023-12-07T12:19:16;100819.06;;;8.45;71.02
19736;BME280;32064;49.310;8.646;2023-12-07T12:21:42;100810.34;;;8.45;71.16
19736;BME280;32064;49.310;8.646;2023-12-07T12:24:09;100807.78;;;8.43;71.81
19736;BME280;32064;49.310;8.646;2023-12-07T12:26:37;100809.41;;;8.46;71.04
19736;BME280;32064;49.310;8.646;2023-12-07T12:29:04;100790.88;;;8.33;71.28
19736;BME280;32064;49.310;8.646;2023-12-07T12:31:30;100793.09;;;8.41;70.62
19736;BME280;32064;49.310;8.646;2023-12-07T12:33:56;100781.38;;;8.30;71.70
19736;BME280;32064;49.310;8.646;2023-12-07T12:36:21;100780.56;;;8.30;70.68
19736;BME280;32064;49.310;8.646;2023-12-07T12:38:51;100771.50;;;8.36;71.26
19736;BME280;32064;49.310;8.646;2023-12-07T12:41:21;100779.72;;;8.29;71.32
19736;BME280;32064;49.310;8.646;2023-12-07T12:43:47;100783.00;;;8.33;71.70
19736;BME280;32064;49.310;8.646;2023-12-07T12:46:13;100784.38;;;8.40;73.15
19736;BME280;32064;49.310;8.646;2023-12-07T12:48:59;100776.91;;;8.32;72.49
19736;BME280;32064;49.310;8.646;2023-12-07T12:51:26;100766.28;;;8.51;71.48
19736;BME280;32064;49.310;8.646;2023-12-07T12:53:53;100766.63;;;8.61;70.73
19736;BME280;32064;49.310;8.646;2023-12-07T12:56:20;100760.69;;;8.73;70.62
19736;BME280;32064;49.310;8.646;2023-12-07T12:58:47;100764.50;;;8.68;71.22
19736;BME280;32064;49.310;8.646;2023-12-07T13:01:15;100766.53;;;8.63;70.23
19736;BME280;32064;49.310;8.646;2023-12-07T13:03:43;100761.72;;;8.55;70.82